createdAt,value
2017-11-23T00:01:26.257Z,34.9
2017-11-23T00:11:26.406Z,36.9
2017-11-23T00:21:27.423Z,33.4
2017-11-23T00:31:25.859Z,35.4
2017-11-23T00:41:26.723Z,36.0
2017-11-23T00:51:27.013Z,37.2
2017-11-23T01:01:26.444Z,33.2
2017-11-23T01:11:26.158Z,33.4
2017-11-23T01:21:25.518Z,36.9
2017-11-23T01:31:26.453Z,40.2
2017-11-23T01:41:26.162Z,42.0
2017-11-23T01:51:29.349Z,37.6
2017-11-23T02:01:26.053Z,40.4
2017-11-23T02:11:27.334Z,44.5
2017-11-23T02:21:25.687Z,41.1
2017-11-23T02:31:27.247Z,38.0
2017-11-23T02:41:27.149Z,36.9
2017-11-23T02:51:27.110Z,38.2
2017-11-23T03:01:26.838Z,37.8
2017-11-23T03:11:27.075Z,36.6
2017-11-23T03:21:26.144Z,40.4
2017-11-23T03:31:27.136Z,40.7
2017-11-23T03:41:26.369Z,39.1
2017-11-23T03:51:25.533Z,39.9
2017-11-23T04:01:26.923Z,37.3
2017-11-23T04:11:27.167Z,36.6
2017-11-23T04:21:25.512Z,38.8
2017-11-23T04:31:25.657Z,37.7
2017-11-23T04:41:26.010Z,34.3
2017-11-23T04:51:26.414Z,36.9
2017-11-23T05:01:26.391Z,33.8
2017-11-23T05:11:26.580Z,32.7
2017-11-23T05:21:27.606Z,33.3
2017-11-23T05:31:26.196Z,33.5
2017-11-23T05:41:26.294Z,32.0
2017-11-23T05:51:26.853Z,32.6
2017-11-23T06:01:26.244Z,30.8
2017-11-23T06:11:26.360Z,34.0
2017-11-23T06:21:25.957Z,32.5
2017-11-23T06:31:28.055Z,34.0
2017-11-23T06:41:27.580Z,32.4
2017-11-23T06:51:26.070Z,32.4
2017-11-23T07:01:27.915Z,33.4
2017-11-23T07:11:26.017Z,31.7
2017-11-23T07:21:26.710Z,30.3
2017-11-23T07:31:26.989Z,29.6
2017-11-23T07:41:26.949Z,30.7
2017-11-23T07:51:26.282Z,29.0
2017-11-23T08:01:27.849Z,30.4
2017-11-23T08:11:25.995Z,30.9
2017-11-23T08:21:26.346Z,32.9
2017-11-23T08:31:25.488Z,31.4
2017-11-23T08:41:25.898Z,33.1
2017-11-23T08:51:27.473Z,30.6
2017-11-23T09:01:26.808Z,29.9
2017-11-23T09:11:27.503Z,29.7
2017-11-23T09:21:25.892Z,28.9
2017-11-23T09:31:29.613Z,29.7
2017-11-23T09:41:25.784Z,27.8
2017-11-23T09:51:26.421Z,28.1
2017-11-23T10:01:26.365Z,28.7
2017-11-23T10:11:25.757Z,30.9
2017-11-23T10:21:26.119Z,29.7
2017-11-23T10:31:27.632Z,26.9
2017-11-23T10:41:25.904Z,27.9
2017-11-23T10:51:26.071Z,30.5
2017-11-23T11:01:26.783Z,28.9
2017-11-23T11:11:25.977Z,32.2
2017-11-23T11:21:27.327Z,31.7
2017-11-23T11:31:27.395Z,29.1
2017-11-23T11:41:28.496Z,27.0
2017-11-23T11:51:25.928Z,30.3
2017-11-23T12:01:26.667Z,26.7
2017-11-23T12:11:28.166Z,30.3
2017-11-23T12:21:25.830Z,30.6
2017-11-23T12:31:26.125Z,26.0
2017-11-23T12:41:26.415Z,26.4
2017-11-23T12:51:26.005Z,20.4
2017-11-23T13:01:26.704Z,22.3
2017-11-23T13:11:26.413Z,19.6
2017-11-23T13:21:27.138Z,17.8
2017-11-23T13:31:27.191Z,20.0
2017-11-23T13:41:28.069Z,12.8
2017-11-23T13:51:27.120Z,10.8
2017-11-23T14:01:27.755Z,11.4
2017-11-23T14:11:26.504Z,10.0
2017-11-23T14:21:26.459Z,10.7
2017-11-23T14:31:25.667Z,11.4
2017-11-23T14:41:26.496Z,12.1
2017-11-23T14:51:25.679Z,11.4
2017-11-23T15:01:26.630Z,13.9
2017-11-23T15:11:26.439Z,14.2
2017-11-23T15:21:25.871Z,15.7
2017-11-23T15:31:27.260Z,15.7
2017-11-23T15:41:25.823Z,16.7
2017-11-23T15:51:25.989Z,18.1
2017-11-23T16:01:26.712Z,15.3
2017-11-23T16:11:26.447Z,18.2
2017-11-23T16:21:26.094Z,21.3
2017-11-23T16:31:26.524Z,23.7
2017-11-23T16:41:25.791Z,27.0
2017-11-23T16:51:26.539Z,29.0
2017-11-23T17:01:25.669Z,28.5
2017-11-23T17:11:26.067Z,29.5
2017-11-23T17:21:26.940Z,34.3
2017-11-23T17:31:26.183Z,33.3
2017-11-23T17:41:26.453Z,33.3
2017-11-23T17:51:26.184Z,40.4
2017-11-23T18:01:26.677Z,48.9
2017-11-23T18:11:27.508Z,42.3
2017-11-23T18:21:26.898Z,42.5
2017-11-23T18:31:26.596Z,58.7
2017-11-23T18:41:26.355Z,73.0
2017-11-23T18:51:27.249Z,69.5
2017-11-23T19:01:26.905Z,69.8
2017-11-23T19:11:27.654Z,71.4
2017-11-23T19:21:26.177Z,74.6
2017-11-23T19:31:25.833Z,83.7
2017-11-23T19:41:26.724Z,87.2
2017-11-23T19:51:25.849Z,72.7
2017-11-23T20:01:27.977Z,68.6
2017-11-23T20:11:26.036Z,64.9
2017-11-23T20:21:26.337Z,66.0
2017-11-23T20:31:26.588Z,65.4
2017-11-23T20:41:25.980Z,65.2
2017-11-23T20:51:26.939Z,62.5
2017-11-23T21:01:26.656Z,62.1
2017-11-23T21:11:26.147Z,57.9
2017-11-23T21:21:28.940Z,59.7
2017-11-23T21:31:26.876Z,58.5
2017-11-23T21:41:27.743Z,57.9
2017-11-23T21:51:26.115Z,59.2
2017-11-23T22:01:27.078Z,57.5
2017-11-23T22:11:26.594Z,58.7
2017-11-23T22:21:26.200Z,60.5
2017-11-23T22:31:26.443Z,61.1
2017-11-23T22:41:25.962Z,62.7
2017-11-23T22:51:27.127Z,54.8
2017-11-23T23:01:27.398Z,59.7
2017-11-23T23:11:25.795Z,59.0
2017-11-23T23:21:27.554Z,61.3
2017-11-23T23:31:27.409Z,62.5
2017-11-23T23:41:26.069Z,59.8
2017-11-23T23:51:27.391Z,60.1
